SBOSBO ATL / KATL
Speedbird OnlineSpeedbird Online ATL / KATL

Hartsfield Jackson Atlanta International Airport
19:05 32.1°C

Location Atlanta, United States
Latitude: 33.6367
Longitude: -84.428101
Local Time 19:05 on 21 Jun 2024
UTC -4 hours (America/New_York)
Currency ÂŁ1 equals USD 1.27
METAR KATL 212152Z 05008KT 10SM FEW065 FEW250 33/16 A3014 RMK AO2 SLP196 T03280156
TAF KATL 212159Z 2122/2224 05008KT P6SM FEW070 FEW250 FM220100 10004KT P6SM SCT250 FM221500 08006KT P6SM SCT050 SCT250
Weather As Of 21 Jun 2024 18:45
Description Few clouds
Wind 15 km/h from North-East (50°)
Cloud Cover 20%
Precipitation Rain: none, Snow: none
Sunrise 06:27
Sunset 20:51
NOTAM 73 active NOTAM
Rotations During the last 90 days there were
80 flights from LHR
81 flights to LHR
1 flights to BOS
Lounges The Club @ ATL, International Terminal
American Airlines Admirals Club, North Terminal
Web Airport Website | Wikipedia
Codes IATA: ATL
ICAO: KATL
Altitude 313 Meter / 1026 Feet
Distance 6,798 KM / 4,224 Miles
from London.
Runways
RunwayLength (m)Surface
08L2743Concrete
08R3048Concrete
09L3624Concrete
09R2744Concrete
102743Concrete
26L3048Concrete
26R2743Concrete
27L2744Concrete
27R3624Concrete
282743Concrete
Radio
TypeDescriptionFrequency
APPATLANTA APP118.35
ATISATIS119.65
CLDCLNC DEL118.1
DEPATLANTA DEP125
GNDGND121.65
RDOMACON RDO116.9
SFASFA30.697
TWRATLANTA TWR119.1
UNICUNICOM122.95
Live ATC



Support Speedbird Online

© 2017-2024 Speedbird Online